sensor_id;sensor_type;location;lat;lon;timestamp;P1;durP1;ratioP1;P2;durP2;ratioP2
40373;SDS011;26079;45.958;12.492;2023-11-21T00:00:13;31.98;;;26.48;;
40373;SDS011;26079;45.958;12.492;2023-11-21T00:02:40;30.40;;;25.73;;
40373;SDS011;26079;45.958;12.492;2023-11-21T00:05:09;33.70;;;29.90;;
40373;SDS011;26079;45.958;12.492;2023-11-21T00:07:37;37.60;;;28.27;;
40373;SDS011;26079;45.958;12.492;2023-11-21T00:10:03;40.67;;;29.25;;
40373;SDS011;26079;45.958;12.492;2023-11-21T00:12:30;35.95;;;29.85;;
40373;SDS011;26079;45.958;12.492;2023-11-21T00:14:56;34.08;;;28.88;;
40373;SDS011;26079;45.958;12.492;2023-11-21T00:17:22;33.03;;;29.27;;
40373;SDS011;26079;45.958;12.492;2023-11-21T00:19:49;31.23;;;27.85;;
40373;SDS011;26079;45.958;12.492;2023-11-21T00:22:17;30.27;;;24.42;;
40373;SDS011;26079;45.958;12.492;2023-11-21T00:24:43;29.63;;;25.15;;
40373;SDS011;26079;45.958;12.492;2023-11-21T00:27:09;28.85;;;24.55;;
40373;SDS011;26079;45.958;12.492;2023-11-21T00:29:35;29.73;;;25.67;;
40373;SDS011;26079;45.958;12.492;2023-11-21T00:32:00;29.40;;;26.30;;
40373;SDS011;26079;45.958;12.492;2023-11-21T00:34:26;30.92;;;25.30;;
40373;SDS011;26079;45.958;12.492;2023-11-21T00:36:52;31.55;;;25.40;;
40373;SDS011;26079;45.958;12.492;2023-11-21T00:39:18;32.45;;;26.35;;
40373;SDS011;26079;45.958;12.492;2023-11-21T00:41:44;30.13;;;25.45;;
40373;SDS011;26079;45.958;12.492;2023-11-21T00:44:13;28.63;;;24.70;;
40373;SDS011;26079;45.958;12.492;2023-11-21T00:46:39;31.05;;;25.92;;
40373;SDS011;26079;45.958;12.492;2023-11-21T00:49:04;32.08;;;26.33;;
40373;SDS011;26079;45.958;12.492;2023-11-21T00:51:30;32.83;;;25.48;;
40373;SDS011;26079;45.958;12.492;2023-11-21T00:53:56;28.25;;;25.05;;
40373;SDS011;26079;45.958;12.492;2023-11-21T00:56:23;30.70;;;25.67;;
40373;SDS011;26079;45.958;12.492;2023-11-21T00:58:49;30.98;;;26.70;;
40373;SDS011;26079;45.958;12.492;2023-11-21T01:01:16;31.58;;;26.08;;
40373;SDS011;26079;45.958;12.492;2023-11-21T01:03:42;29.15;;;26.08;;
40373;SDS011;26079;45.958;12.492;2023-11-21T01:06:08;29.73;;;26.10;;
40373;SDS011;26079;45.958;12.492;2023-11-21T01:08:34;33.70;;;28.73;;
40373;SDS011;26079;45.958;12.492;2023-11-21T01:11:01;34.08;;;30.40;;
40373;SDS011;26079;45.958;12.492;2023-11-21T01:13:27;33.72;;;29.85;;
40373;SDS011;26079;45.958;12.492;2023-11-21T01:15:53;43.78;;;34.90;;
40373;SDS011;26079;45.958;12.492;2023-11-21T01:18:19;34.95;;;31.42;;
40373;SDS011;26079;45.958;12.492;2023-11-21T01:20:44;34.97;;;31.48;;
40373;SDS011;26079;45.958;12.492;2023-11-21T01:23:12;37.38;;;32.25;;
40373;SDS011;26079;45.958;12.492;2023-11-21T01:25:38;37.97;;;33.80;;
40373;SDS011;26079;45.958;12.492;2023-11-21T01:28:04;37.45;;;33.63;;
40373;SDS011;26079;45.958;12.492;2023-11-21T01:30:29;71.88;;;55.03;;
40373;SDS011;26079;45.958;12.492;2023-11-21T01:32:56;59.55;;;52.95;;
40373;SDS011;26079;45.958;12.492;2023-11-21T01:35:22;63.63;;;53.83;;
40373;SDS011;26079;45.958;12.492;2023-11-21T01:37:47;49.22;;;42.22;;
40373;SDS011;26079;45.958;12.492;2023-11-21T01:40:13;46.83;;;40.85;;
40373;SDS011;26079;45.958;12.492;2023-11-21T01:42:39;42.60;;;36.63;;
40373;SDS011;26079;45.958;12.492;2023-11-21T01:45:06;54.17;;;48.28;;
40373;SDS011;26079;45.958;12.492;2023-11-21T01:47:32;74.63;;;64.45;;
40373;SDS011;26079;45.958;12.492;2023-11-21T01:49:59;58.83;;;48.53;;
40373;SDS011;26079;45.958;12.492;2023-11-21T01:52:25;70.38;;;57.72;;
40373;SDS011;26079;45.958;12.492;2023-11-21T01:54:52;88.78;;;74.07;;
40373;SDS011;26079;45.958;12.492;2023-11-21T01:57:19;59.97;;;53.65;;
40373;SDS011;26079;45.958;12.492;2023-11-21T01:59:45;51.90;;;44.22;;
40373;SDS011;26079;45.958;12.492;2023-11-21T02:02:14;42.42;;;37.72;;
40373;SDS011;26079;45.958;12.492;2023-11-21T02:04:41;41.20;;;36.75;;
40373;SDS011;26079;45.958;12.492;2023-11-21T02:07:07;36.55;;;30.80;;
40373;SDS011;26079;45.958;12.492;2023-11-21T02:09:33;33.50;;;29.92;;
40373;SDS011;26079;45.958;12.492;2023-11-21T02:11:59;30.77;;;27.50;;
40373;SDS011;26079;45.958;12.492;2023-11-21T02:14:26;34.20;;;26.67;;
40373;SDS011;26079;45.958;12.492;2023-11-21T02:16:53;33.80;;;25.92;;
40373;SDS011;26079;45.958;12.492;2023-11-21T02:19:19;28.83;;;25.45;;
40373;SDS011;26079;45.958;12.492;2023-11-21T02:21:56;30.42;;;23.05;;
40373;SDS011;26079;45.958;12.492;2023-11-21T02:24:31;26.35;;;21.65;;
40373;SDS011;26079;45.958;12.492;2023-11-21T02:26:57;25.48;;;20.58;;
40373;SDS011;26079;45.958;12.492;2023-11-21T02:29:22;23.08;;;19.60;;
40373;SDS011;26079;45.958;12.492;2023-11-21T02:31:53;20.50;;;18.10;;
40373;SDS011;26079;45.958;12.492;2023-11-21T02:34:20;21.77;;;18.88;;
40373;SDS011;26079;45.958;12.492;2023-11-21T02:36:47;22.67;;;17.90;;
40373;SDS011;26079;45.958;12.492;2023-11-21T02:39:16;24.25;;;18.23;;
40373;SDS011;26079;45.958;12.492;2023-11-21T02:41:43;30.13;;;18.42;;
40373;SDS011;26079;45.958;12.492;2023-11-21T02:44:09;27.25;;;17.95;;
40373;SDS011;26079;45.958;12.492;2023-11-21T02:46:36;24.38;;;16.63;;
40373;SDS011;26079;45.958;12.492;2023-11-21T02:49:05;22.98;;;14.82;;
40373;SDS011;26079;45.958;12.492;2023-11-21T02:51:31;25.25;;;15.48;;
40373;SDS011;26079;45.958;12.492;2023-11-21T02:53:58;18.63;;;13.35;;
40373;SDS011;26079;45.958;12.492;2023-11-21T02:56:24;22.58;;;13.70;;
40373;SDS011;26079;45.958;12.492;2023-11-21T02:58:51;23.27;;;13.35;;
40373;SDS011;26079;45.958;12.492;2023-11-21T03:01:17;16.95;;;13.18;;
40373;SDS011;26079;45.958;12.492;2023-11-21T03:03:43;13.07;;;11.40;;
40373;SDS011;26079;45.958;12.492;2023-11-21T03:06:09;17.80;;;13.18;;
40373;SDS011;26079;45.958;12.492;2023-11-21T03:08:34;13.38;;;12.00;;
40373;SDS011;26079;45.958;12.492;2023-11-21T03:11:00;15.30;;;12.48;;
40373;SDS011;26079;45.958;12.492;2023-11-21T03:13:28;16.05;;;11.60;;
40373;SDS011;26079;45.958;12.492;2023-11-21T03:15:54;17.08;;;11.30;;
40373;SDS011;26079;45.958;12.492;2023-11-21T03:18:20;19.30;;;12.13;;
40373;SDS011;26079;45.958;12.492;2023-11-21T03:20:52;21.42;;;12.07;;
40373;SDS011;26079;45.958;12.492;2023-11-21T03:23:18;13.00;;;10.82;;
40373;SDS011;26079;45.958;12.492;2023-11-21T03:25:44;16.50;;;11.48;;
40373;SDS011;26079;45.958;12.492;2023-11-21T03:28:10;15.77;;;11.60;;
40373;SDS011;26079;45.958;12.492;2023-11-21T03:30:36;16.10;;;12.35;;
40373;SDS011;26079;45.958;12.492;2023-11-21T03:33:01;24.48;;;14.43;;
40373;SDS011;26079;45.958;12.492;2023-11-21T03:35:27;19.05;;;14.07;;
40373;SDS011;26079;45.958;12.492;2023-11-21T03:37:53;23.35;;;13.50;;
40373;SDS011;26079;45.958;12.492;2023-11-21T03:40:19;15.65;;;13.85;;
40373;SDS011;26079;45.958;12.492;2023-11-21T03:42:46;19.00;;;13.82;;
40373;SDS011;26079;45.958;12.492;2023-11-21T03:45:12;27.58;;;14.35;;
40373;SDS011;26079;45.958;12.492;2023-11-21T03:47:40;17.38;;;14.05;;
40373;SDS011;26079;45.958;12.492;2023-11-21T03:50:06;19.40;;;14.20;;
40373;SDS011;26079;45.958;12.492;2023-11-21T03:52:33;22.13;;;14.88;;
40373;SDS011;26079;45.958;12.492;2023-11-21T03:55:00;15.30;;;12.80;;
40373;SDS011;26079;45.958;12.492;2023-11-21T03:57:26;16.52;;;13.30;;
40373;SDS011;26079;45.958;12.492;2023-11-21T03:59:53;16.65;;;14.00;;
40373;SDS011;26079;45.958;12.492;2023-11-21T04:02:19;15.10;;;13.63;;
40373;SDS011;26079;45.958;12.492;2023-11-21T04:04:45;18.98;;;15.10;;
40373;SDS011;26079;45.958;12.492;2023-11-21T04:07:10;17.88;;;15.20;;
40373;SDS011;26079;45.958;12.492;2023-11-21T04:09:38;16.58;;;13.80;;
40373;SDS011;26079;45.958;12.492;2023-11-21T04:12:04;16.35;;;13.95;;
40373;SDS011;26079;45.958;12.492;2023-11-21T04:14:30;17.25;;;15.50;;
40373;SDS011;26079;45.958;12.492;2023-11-21T04:16:57;18.35;;;15.88;;
40373;SDS011;26079;45.958;12.492;2023-11-21T04:19:23;18.67;;;14.45;;
40373;SDS011;26079;45.958;12.492;2023-11-21T04:21:49;16.30;;;14.55;;
40373;SDS011;26079;45.958;12.492;2023-11-21T04:24:15;15.75;;;14.25;;
40373;SDS011;26079;45.958;12.492;2023-11-21T04:26:41;18.65;;;15.40;;
40373;SDS011;26079;45.958;12.492;2023-11-21T04:29:06;16.25;;;14.63;;
40373;SDS011;26079;45.958;12.492;2023-11-21T04:31:32;16.52;;;14.93;;
40373;SDS011;26079;45.958;12.492;2023-11-21T04:33:58;17.98;;;16.10;;
40373;SDS011;26079;45.958;12.492;2023-11-21T04:36:23;19.27;;;15.15;;
40373;SDS011;26079;45.958;12.492;2023-11-21T04:38:49;17.40;;;15.60;;
40373;SDS011;26079;45.958;12.492;2023-11-21T04:41:15;18.33;;;14.88;;
40373;SDS011;26079;45.958;12.492;2023-11-21T04:43:40;16.65;;;15.05;;
40373;SDS011;26079;45.958;12.492;2023-11-21T04:46:07;21.90;;;17.08;;
40373;SDS011;26079;45.958;12.492;2023-11-21T04:48:33;21.13;;;18.20;;
40373;SDS011;26079;45.958;12.492;2023-11-21T04:50:59;25.90;;;17.10;;
40373;SDS011;26079;45.958;12.492;2023-11-21T04:53:25;21.95;;;17.75;;
40373;SDS011;26079;45.958;12.492;2023-11-21T04:55:50;19.60;;;17.17;;
40373;SDS011;26079;45.958;12.492;2023-11-21T04:58:16;18.83;;;16.90;;
40373;SDS011;26079;45.958;12.492;2023-11-21T05:00:42;20.10;;;17.98;;
40373;SDS011;26079;45.958;12.492;2023-11-21T05:03:09;23.45;;;18.10;;
40373;SDS011;26079;45.958;12.492;2023-11-21T05:05:34;20.92;;;18.23;;
40373;SDS011;26079;45.958;12.492;2023-11-21T05:08:00;21.33;;;19.20;;
40373;SDS011;26079;45.958;12.492;2023-11-21T05:10:26;22.67;;;18.80;;
40373;SDS011;26079;45.958;12.492;2023-11-21T05:12:52;22.45;;;19.15;;
40373;SDS011;26079;45.958;12.492;2023-11-21T05:15:18;23.05;;;19.30;;
40373;SDS011;26079;45.958;12.492;2023-11-21T05:17:44;22.50;;;20.08;;
40373;SDS011;26079;45.958;12.492;2023-11-21T05:20:11;40.55;;;29.40;;
40373;SDS011;26079;45.958;12.492;2023-11-21T05:22:37;37.15;;;27.17;;
40373;SDS011;26079;45.958;12.492;2023-11-21T05:25:03;31.08;;;26.27;;
40373;SDS011;26079;45.958;12.492;2023-11-21T05:27:30;31.10;;;24.40;;
40373;SDS011;26079;45.958;12.492;2023-11-21T05:29:56;32.53;;;26.80;;
40373;SDS011;26079;45.958;12.492;2023-11-21T05:32:23;31.55;;;25.45;;
40373;SDS011;26079;45.958;12.492;2023-11-21T05:34:49;29.58;;;25.23;;
40373;SDS011;26079;45.958;12.492;2023-11-21T05:37:15;28.60;;;24.98;;
40373;SDS011;26079;45.958;12.492;2023-11-21T05:39:40;29.08;;;25.95;;
40373;SDS011;26079;45.958;12.492;2023-11-21T05:42:06;26.50;;;23.67;;
40373;SDS011;26079;45.958;12.492;2023-11-21T05:44:34;31.50;;;25.05;;
40373;SDS011;26079;45.958;12.492;2023-11-21T05:47:00;30.98;;;25.17;;
40373;SDS011;26079;45.958;12.492;2023-11-21T05:49:25;29.75;;;24.73;;
40373;SDS011;26079;45.958;12.492;2023-11-21T05:51:52;28.20;;;24.15;;
40373;SDS011;26079;45.958;12.492;2023-11-21T05:54:21;32.35;;;26.30;;
40373;SDS011;26079;45.958;12.492;2023-11-21T05:56:47;25.55;;;22.92;;
40373;SDS011;26079;45.958;12.492;2023-11-21T05:59:12;23.92;;;21.40;;
40373;SDS011;26079;45.958;12.492;2023-11-21T06:01:39;29.58;;;21.98;;
40373;SDS011;26079;45.958;12.492;2023-11-21T06:04:05;26.48;;;22.15;;
40373;SDS011;26079;45.958;12.492;2023-11-21T06:06:33;32.47;;;24.38;;
40373;SDS011;26079;45.958;12.492;2023-11-21T06:08:59;35.28;;;24.80;;
40373;SDS011;26079;45.958;12.492;2023-11-21T06:11:25;28.63;;;25.70;;
40373;SDS011;26079;45.958;12.492;2023-11-21T06:13:51;77.75;;;53.30;;
40373;SDS011;26079;45.958;12.492;2023-11-21T06:16:18;73.25;;;51.25;;
40373;SDS011;26079;45.958;12.492;2023-11-21T06:18:47;52.83;;;42.05;;
40373;SDS011;26079;45.958;12.492;2023-11-21T06:21:12;56.63;;;42.15;;
40373;SDS011;26079;45.958;12.492;2023-11-21T06:23:38;54.28;;;41.40;;
40373;SDS011;26079;45.958;12.492;2023-11-21T06:26:06;31.42;;;28.02;;
40373;SDS011;26079;45.958;12.492;2023-11-21T06:28:31;48.50;;;39.70;;
40373;SDS011;26079;45.958;12.492;2023-11-21T06:30:57;40.30;;;31.90;;
40373;SDS011;26079;45.958;12.492;2023-11-21T06:33:23;34.97;;;31.17;;
40373;SDS011;26079;45.958;12.492;2023-11-21T06:35:52;37.90;;;32.03;;
40373;SDS011;26079;45.958;12.492;2023-11-21T06:38:18;38.00;;;32.25;;
40373;SDS011;26079;45.958;12.492;2023-11-21T06:40:44;35.45;;;31.00;;
40373;SDS011;26079;45.958;12.492;2023-11-21T06:43:10;36.45;;;31.65;;
40373;SDS011;26079;45.958;12.492;2023-11-21T06:45:36;33.58;;;29.83;;
40373;SDS011;26079;45.958;12.492;2023-11-21T06:48:02;38.72;;;34.08;;
40373;SDS011;26079;45.958;12.492;2023-11-21T06:50:28;66.57;;;57.17;;
40373;SDS011;26079;45.958;12.492;2023-11-21T06:52:53;38.85;;;34.05;;
40373;SDS011;26079;45.958;12.492;2023-11-21T06:55:19;36.58;;;28.38;;
40373;SDS011;26079;45.958;12.492;2023-11-21T06:57:45;28.35;;;25.20;;
40373;SDS011;26079;45.958;12.492;2023-11-21T07:00:12;29.60;;;25.55;;
40373;SDS011;26079;45.958;12.492;2023-11-21T07:02:38;33.70;;;26.20;;
40373;SDS011;26079;45.958;12.492;2023-11-21T07:05:04;24.10;;;21.63;;
40373;SDS011;26079;45.958;12.492;2023-11-21T07:07:30;30.77;;;22.70;;
40373;SDS011;26079;45.958;12.492;2023-11-21T07:09:56;29.08;;;22.10;;
40373;SDS011;26079;45.958;12.492;2023-11-21T07:12:22;23.70;;;20.15;;
40373;SDS011;26079;45.958;12.492;2023-11-21T07:14:50;26.88;;;20.88;;
40373;SDS011;26079;45.958;12.492;2023-11-21T07:17:16;28.92;;;20.58;;
40373;SDS011;26079;45.958;12.492;2023-11-21T07:19:42;27.25;;;19.15;;
40373;SDS011;26079;45.958;12.492;2023-11-21T07:22:08;25.67;;;19.83;;
40373;SDS011;26079;45.958;12.492;2023-11-21T07:24:34;24.83;;;18.95;;
40373;SDS011;26079;45.958;12.492;2023-11-21T07:27:01;25.20;;;19.80;;
40373;SDS011;26079;45.958;12.492;2023-11-21T07:29:29;26.63;;;23.10;;
40373;SDS011;26079;45.958;12.492;2023-11-21T07:31:55;31.27;;;21.05;;
40373;SDS011;26079;45.958;12.492;2023-11-21T07:34:21;23.33;;;19.25;;
40373;SDS011;26079;45.958;12.492;2023-11-21T07:36:47;32.05;;;23.50;;
40373;SDS011;26079;45.958;12.492;2023-11-21T07:39:12;26.05;;;23.13;;
40373;SDS011;26079;45.958;12.492;2023-11-21T07:41:40;30.58;;;22.58;;
40373;SDS011;26079;45.958;12.492;2023-11-21T07:44:10;37.63;;;30.42;;
40373;SDS011;26079;45.958;12.492;2023-11-21T07:46:36;61.15;;;46.90;;
40373;SDS011;26079;45.958;12.492;2023-11-21T07:49:02;29.08;;;23.85;;
40373;SDS011;26079;45.958;12.492;2023-11-21T07:51:28;35.30;;;24.40;;
40373;SDS011;26079;45.958;12.492;2023-11-21T07:53:53;26.10;;;23.38;;
40373;SDS011;26079;45.958;12.492;2023-11-21T07:56:19;28.13;;;21.42;;
40373;SDS011;26079;45.958;12.492;2023-11-21T07:58:45;21.05;;;18.27;;
40373;SDS011;26079;45.958;12.492;2023-11-21T08:01:10;19.92;;;17.88;;
40373;SDS011;26079;45.958;12.492;2023-11-21T08:03:37;19.13;;;14.75;;
40373;SDS011;26079;45.958;12.492;2023-11-21T08:06:02;25.42;;;13.10;;
40373;SDS011;26079;45.958;12.492;2023-11-21T08:08:28;17.95;;;15.43;;
40373;SDS011;26079;45.958;12.492;2023-11-21T08:10:54;19.90;;;12.77;;
40373;SDS011;26079;45.958;12.492;2023-11-21T08:13:26;22.90;;;16.50;;
40373;SDS011;26079;45.958;12.492;2023-11-21T08:15:59;16.40;;;14.80;;
40373;SDS011;26079;45.958;12.492;2023-11-21T08:18:28;17.65;;;15.35;;
40373;SDS011;26079;45.958;12.492;2023-11-21T08:20:54;17.48;;;15.73;;
40373;SDS011;26079;45.958;12.492;2023-11-21T08:23:21;18.10;;;14.30;;
40373;SDS011;26079;45.958;12.492;2023-11-21T08:25:50;18.33;;;11.60;;
40373;SDS011;26079;45.958;12.492;2023-11-21T08:28:16;17.27;;;11.63;;
40373;SDS011;26079;45.958;12.492;2023-11-21T08:30:42;16.15;;;12.63;;
40373;SDS011;26079;45.958;12.492;2023-11-21T08:33:08;17.27;;;11.48;;
40373;SDS011;26079;45.958;12.492;2023-11-21T08:35:34;15.88;;;13.40;;
40373;SDS011;26079;45.958;12.492;2023-11-21T08:38:02;16.63;;;13.10;;
40373;SDS011;26079;45.958;12.492;2023-11-21T08:40:28;18.13;;;13.07;;
40373;SDS011;26079;45.958;12.492;2023-11-21T08:42:54;12.63;;;10.40;;
40373;SDS011;26079;45.958;12.492;2023-11-21T08:45:20;11.73;;;9.07;;
40373;SDS011;26079;45.958;12.492;2023-11-21T08:47:47;7.68;;;6.10;;
40373;SDS011;26079;45.958;12.492;2023-11-21T08:50:13;6.20;;;4.45;;
40373;SDS011;26079;45.958;12.492;2023-11-21T08:52:40;5.35;;;3.15;;
40373;SDS011;26079;45.958;12.492;2023-11-21T08:55:06;2.92;;;2.72;;
40373;SDS011;26079;45.958;12.492;2023-11-21T08:57:37;2.50;;;2.30;;
40373;SDS011;26079;45.958;12.492;2023-11-21T09:00:05;5.95;;;3.72;;
40373;SDS011;26079;45.958;12.492;2023-11-21T09:02:36;7.70;;;3.78;;
40373;SDS011;26079;45.958;12.492;2023-11-21T09:05:03;2.75;;;2.22;;
40373;SDS011;26079;45.958;12.492;2023-11-21T09:07:30;4.05;;;3.63;;
40373;SDS011;26079;45.958;12.492;2023-11-21T09:09:56;4.15;;;2.28;;
40373;SDS011;26079;45.958;12.492;2023-11-21T09:12:21;6.05;;;1.60;;
40373;SDS011;26079;45.958;12.492;2023-11-21T09:14:49;1.98;;;1.77;;
40373;SDS011;26079;45.958;12.492;2023-11-21T09:17:16;5.15;;;2.83;;
40373;SDS011;26079;45.958;12.492;2023-11-21T09:19:41;2.65;;;2.40;;
40373;SDS011;26079;45.958;12.492;2023-11-21T09:22:10;3.15;;;2.85;;
40373;SDS011;26079;45.958;12.492;2023-11-21T09:24:36;6.18;;;2.97;;
40373;SDS011;26079;45.958;12.492;2023-11-21T09:27:02;4.28;;;3.72;;
40373;SDS011;26079;45.958;12.492;2023-11-21T09:29:30;7.82;;;3.42;;
40373;SDS011;26079;45.958;12.492;2023-11-21T09:31:56;15.15;;;3.15;;
40373;SDS011;26079;45.958;12.492;2023-11-21T09:34:24;4.80;;;2.58;;
40373;SDS011;26079;45.958;12.492;2023-11-21T09:36:51;2.35;;;2.08;;
40373;SDS011;26079;45.958;12.492;2023-11-21T09:39:17;2.13;;;1.85;;
40373;SDS011;26079;45.958;12.492;2023-11-21T09:41:58;2.55;;;2.00;;
40373;SDS011;26079;45.958;12.492;2023-11-21T09:45:05;4.38;;;2.22;;
40373;SDS011;26079;45.958;12.492;2023-11-21T09:47:38;5.43;;;2.10;;
40373;SDS011;26079;45.958;12.492;2023-11-21T09:50:04;3.53;;;1.92;;
40373;SDS011;26079;45.958;12.492;2023-11-21T09:52:35;5.35;;;3.30;;
40373;SDS011;26079;45.958;12.492;2023-11-21T09:55:19;4.03;;;3.50;;
40373;SDS011;26079;45.958;12.492;2023-11-21T09:57:46;6.22;;;3.72;;
40373;SDS011;26079;45.958;12.492;2023-11-21T10:00:14;4.35;;;3.25;;
40373;SDS011;26079;45.958;12.492;2023-11-21T10:02:42;3.97;;;3.47;;
40373;SDS011;26079;45.958;12.492;2023-11-21T10:05:08;6.90;;;4.93;;
40373;SDS011;26079;45.958;12.492;2023-11-21T10:07:36;14.35;;;8.15;;
40373;SDS011;26079;45.958;12.492;2023-11-21T10:10:04;6.40;;;4.40;;
40373;SDS011;26079;45.958;12.492;2023-11-21T10:12:30;10.25;;;5.15;;
40373;SDS011;26079;45.958;12.492;2023-11-21T10:14:58;6.85;;;3.65;;
40373;SDS011;26079;45.958;12.492;2023-11-21T10:17:25;7.53;;;4.25;;
40373;SDS011;26079;45.958;12.492;2023-11-21T10:19:55;6.97;;;4.55;;
40373;SDS011;26079;45.958;12.492;2023-11-21T10:22:22;7.45;;;3.90;;
40373;SDS011;26079;45.958;12.492;2023-11-21T10:24:49;7.57;;;4.28;;
40373;SDS011;26079;45.958;12.492;2023-11-21T10:27:14;4.13;;;3.25;;
40373;SDS011;26079;45.958;12.492;2023-11-21T10:29:41;17.25;;;4.32;;
40373;SDS011;26079;45.958;12.492;2023-11-21T10:32:06;6.03;;;3.60;;
40373;SDS011;26079;45.958;12.492;2023-11-21T10:34:32;6.63;;;3.90;;
40373;SDS011;26079;45.958;12.492;2023-11-21T10:36:59;9.77;;;3.90;;
40373;SDS011;26079;45.958;12.492;2023-11-21T10:39:36;5.80;;;5.03;;
40373;SDS011;26079;45.958;12.492;2023-11-21T10:42:03;9.20;;;6.30;;
40373;SDS011;26079;45.958;12.492;2023-11-21T10:44:29;5.10;;;4.60;;
40373;SDS011;26079;45.958;12.492;2023-11-21T10:46:55;5.18;;;3.72;;
40373;SDS011;26079;45.958;12.492;2023-11-21T10:49:22;10.38;;;7.40;;
40373;SDS011;26079;45.958;12.492;2023-11-21T10:51:50;7.72;;;3.55;;
40373;SDS011;26079;45.958;12.492;2023-11-21T10:54:21;3.17;;;2.35;;
40373;SDS011;26079;45.958;12.492;2023-11-21T10:56:53;2.67;;;2.42;;
40373;SDS011;26079;45.958;12.492;2023-11-21T10:59:24;6.63;;;4.55;;
40373;SDS011;26079;45.958;12.492;2023-11-21T11:01:54;4.50;;;2.95;;
40373;SDS011;26079;45.958;12.492;2023-11-21T11:04:22;3.10;;;2.78;;
40373;SDS011;26079;45.958;12.492;2023-11-21T11:06:51;5.03;;;3.05;;
40373;SDS011;26079;45.958;12.492;2023-11-21T11:09:19;3.92;;;3.10;;
40373;SDS011;26079;45.958;12.492;2023-11-21T11:11:46;2.85;;;2.35;;
40373;SDS011;26079;45.958;12.492;2023-11-21T11:14:12;3.58;;;2.83;;
40373;SDS011;26079;45.958;12.492;2023-11-21T11:16:39;4.28;;;2.17;;
40373;SDS011;26079;45.958;12.492;2023-11-21T11:19:09;4.72;;;3.38;;
40373;SDS011;26079;45.958;12.492;2023-11-21T11:29:35;3.63;;;2.30;;
40373;SDS011;26079;45.958;12.492;2023-11-21T11:37:52;1.55;;;1.33;;
40373;SDS011;26079;45.958;12.492;2023-11-21T11:40:19;4.43;;;1.40;;
40373;SDS011;26079;45.958;12.492;2023-11-21T11:42:58;4.97;;;2.25;;
40373;SDS011;26079;45.958;12.492;2023-11-21T11:45:32;2.28;;;1.58;;
40373;SDS011;26079;45.958;12.492;2023-11-21T11:47:59;2.55;;;1.77;;
40373;SDS011;26079;45.958;12.492;2023-11-21T11:50:26;4.03;;;1.42;;
40373;SDS011;26079;45.958;12.492;2023-11-21T11:52:52;4.20;;;2.38;;
40373;SDS011;26079;45.958;12.492;2023-11-21T11:55:24;1.65;;;1.30;;
40373;SDS011;26079;45.958;12.492;2023-11-21T11:57:53;2.33;;;1.05;;
40373;SDS011;26079;45.958;12.492;2023-11-21T12:02:52;1.65;;;0.93;;
40373;SDS011;26079;45.958;12.492;2023-11-21T12:05:23;1.80;;;0.80;;
40373;SDS011;26079;45.958;12.492;2023-11-21T12:10:29;5.10;;;0.80;;
40373;SDS011;26079;45.958;12.492;2023-11-21T12:12:56;0.93;;;0.70;;
40373;SDS011;26079;45.958;12.492;2023-11-21T12:15:24;1.42;;;0.85;;
40373;SDS011;26079;45.958;12.492;2023-11-21T12:17:50;3.60;;;1.63;;
40373;SDS011;26079;45.958;12.492;2023-11-21T12:20:20;10.23;;;1.42;;
40373;SDS011;26079;45.958;12.492;2023-11-21T12:25:23;2.05;;;1.63;;
40373;SDS011;26079;45.958;12.492;2023-11-21T12:27:53;1.77;;;1.20;;
40373;SDS011;26079;45.958;12.492;2023-11-21T12:30:20;1.30;;;1.20;;
40373;SDS011;26079;45.958;12.492;2023-11-21T12:32:48;1.88;;;1.55;;
40373;SDS011;26079;45.958;12.492;2023-11-21T12:35:19;2.67;;;1.30;;
40373;SDS011;26079;45.958;12.492;2023-11-21T12:37:46;4.13;;;1.60;;
40373;SDS011;26079;45.958;12.492;2023-11-21T12:40:13;3.20;;;1.45;;
40373;SDS011;26079;45.958;12.492;2023-11-21T12:42:43;6.25;;;1.58;;
40373;SDS011;26079;45.958;12.492;2023-11-21T12:47:45;1.58;;;1.38;;
40373;SDS011;26079;45.958;12.492;2023-11-21T12:50:18;2.13;;;1.42;;
40373;SDS011;26079;45.958;12.492;2023-11-21T12:52:48;2.08;;;1.20;;
40373;SDS011;26079;45.958;12.492;2023-11-21T12:55:21;1.50;;;1.23;;
40373;SDS011;26079;45.958;12.492;2023-11-21T12:57:52;1.58;;;0.88;;
40373;SDS011;26079;45.958;12.492;2023-11-21T13:00:31;1.23;;;1.13;;
40373;SDS011;26079;45.958;12.492;2023-11-21T13:03:02;2.78;;;1.38;;
40373;SDS011;26079;45.958;12.492;2023-11-21T13:05:35;2.92;;;2.47;;
40373;SDS011;26079;45.958;12.492;2023-11-21T13:08:04;3.35;;;1.55;;
40373;SDS011;26079;45.958;12.492;2023-11-21T13:10:35;1.38;;;0.63;;
40373;SDS011;26079;45.958;12.492;2023-11-21T13:13:02;1.98;;;1.65;;
40373;SDS011;26079;45.958;12.492;2023-11-21T13:15:46;6.20;;;1.45;;
40373;SDS011;26079;45.958;12.492;2023-11-21T13:18:25;3.17;;;2.58;;
40373;SDS011;26079;45.958;12.492;2023-11-21T13:20:55;4.10;;;3.33;;
40373;SDS011;26079;45.958;12.492;2023-11-21T13:23:22;2.38;;;1.75;;
40373;SDS011;26079;45.958;12.492;2023-11-21T13:25:49;3.10;;;1.65;;
40373;SDS011;26079;45.958;12.492;2023-11-21T13:28:15;1.77;;;1.20;;
40373;SDS011;26079;45.958;12.492;2023-11-21T13:30:42;2.25;;;1.98;;
40373;SDS011;26079;45.958;12.492;2023-11-21T13:33:09;4.93;;;1.92;;
40373;SDS011;26079;45.958;12.492;2023-11-21T13:35:42;5.65;;;3.08;;
40373;SDS011;26079;45.958;12.492;2023-11-21T13:38:14;2.70;;;2.45;;
40373;SDS011;26079;45.958;12.492;2023-11-21T13:40:42;3.63;;;2.92;;
40373;SDS011;26079;45.958;12.492;2023-11-21T13:43:18;4.18;;;2.65;;
40373;SDS011;26079;45.958;12.492;2023-11-21T13:45:46;10.50;;;4.18;;
40373;SDS011;26079;45.958;12.492;2023-11-21T13:48:14;8.63;;;5.28;;
40373;SDS011;26079;45.958;12.492;2023-11-21T13:50:44;5.65;;;4.38;;
40373;SDS011;26079;45.958;12.492;2023-11-21T13:53:21;10.80;;;6.25;;
40373;SDS011;26079;45.958;12.492;2023-11-21T13:55:54;5.38;;;4.68;;
40373;SDS011;26079;45.958;12.492;2023-11-21T13:58:20;7.97;;;5.05;;
40373;SDS011;26079;45.958;12.492;2023-11-21T14:01:07;5.97;;;4.63;;
40373;SDS011;26079;45.958;12.492;2023-11-21T14:03:49;16.20;;;12.17;;
40373;SDS011;26079;45.958;12.492;2023-11-21T14:06:22;13.50;;;8.15;;
40373;SDS011;26079;45.958;12.492;2023-11-21T14:08:53;7.30;;;5.55;;
40373;SDS011;26079;45.958;12.492;2023-11-21T14:11:21;7.60;;;5.63;;
40373;SDS011;26079;45.958;12.492;2023-11-21T14:13:47;9.07;;;7.50;;
40373;SDS011;26079;45.958;12.492;2023-11-21T14:16:14;7.97;;;7.18;;
40373;SDS011;26079;45.958;12.492;2023-11-21T14:18:42;6.47;;;4.22;;
40373;SDS011;26079;45.958;12.492;2023-11-21T14:21:20;5.72;;;5.13;;
40373;SDS011;26079;45.958;12.492;2023-11-21T14:23:46;6.43;;;4.57;;
40373;SDS011;26079;45.958;12.492;2023-11-21T14:26:13;4.03;;;3.28;;
40373;SDS011;26079;45.958;12.492;2023-11-21T14:28:40;8.98;;;7.00;;
40373;SDS011;26079;45.958;12.492;2023-11-21T14:31:07;20.73;;;14.40;;
40373;SDS011;26079;45.958;12.492;2023-11-21T14:33:34;11.60;;;7.53;;
40373;SDS011;26079;45.958;12.492;2023-11-21T14:35:59;9.18;;;6.43;;
40373;SDS011;26079;45.958;12.492;2023-11-21T14:38:25;10.90;;;6.40;;
40373;SDS011;26079;45.958;12.492;2023-11-21T14:40:51;5.57;;;3.53;;
40373;SDS011;26079;45.958;12.492;2023-11-21T14:43:17;18.13;;;3.75;;